Time;durP1;ratioP1;P1;durP2;ratioP2;P2;SDS_P1;SDS_P2;PMS_P1;PMS_P2;Temp;Humidity;BMP_temperature;BMP_pressure;BME280_temperature;BME280_humidity;BME280_pressure;Samples;Min_cycle;Max_cycle;Signal;HPM_P1;HPM_P2
2022/07/05 00:00:36;;;;;;;4.80;4.30;;;13.20;99.90;;;;;;5071550;28;20040;-85
2022/07/05 00:03:02;;;;;;;6.30;4.18;;;13.10;99.90;;;;;;5071924;28;20051;-85
2022/07/05 00:05:27;;;;;;;7.78;4.13;;;13.10;99.90;;;;;;5071173;28;20041;-85
2022/07/05 00:07:53;;;;;;;6.25;4.10;;;13.00;99.90;;;;;;5071848;28;20040;-85
2022/07/05 00:10:19;;;;;;;4.55;4.15;;;13.00;99.90;;;;;;5053829;28;20582;-86
2022/07/05 00:12:44;;;;;;;6.93;3.80;;;13.00;99.90;;;;;;5071872;28;20084;-86
2022/07/05 00:15:10;;;;;;;6.55;3.97;;;12.90;99.90;;;;;;5037285;28;20048;-86
2022/07/05 00:17:35;;;;;;;6.25;4.25;;;12.90;99.90;;;;;;5053197;28;20052;-86
2022/07/05 00:20:01;;;;;;;5.03;4.00;;;12.90;99.90;;;;;;5054021;28;20052;-86
2022/07/05 00:22:27;;;;;;;5.93;4.22;;;12.90;99.90;;;;;;5036455;28;20051;-86
2022/07/05 00:24:52;;;;;;;5.80;3.92;;;12.80;99.90;;;;;;5071460;28;20037;-84
2022/07/05 00:27:19;;;;;;;4.32;3.92;;;12.80;99.90;;;;;;5053707;28;20483;-84
2022/07/05 00:29:45;;;;;;;6.55;4.68;;;12.80;99.90;;;;;;5071029;28;20417;-85
2022/07/05 00:32:10;;;;;;;7.40;4.50;;;12.80;99.90;;;;;;5071351;28;20052;-85
2022/07/05 00:34:36;;;;;;;11.38;4.50;;;12.80;99.90;;;;;;5036655;28;20051;-85
2022/07/05 00:37:02;;;;;;;4.70;4.30;;;12.70;99.90;;;;;;5071097;28;20045;-85
2022/07/05 00:39:27;;;;;;;5.97;4.30;;;12.70;99.90;;;;;;5070931;28;20040;-85
2022/07/05 00:41:53;;;;;;;4.10;3.72;;;12.70;99.90;;;;;;5070964;28;20097;-86
2022/07/05 00:44:31;;;;;;;5.88;4.13;;;12.70;99.90;;;;;;5052978;28;20061;-85
2022/07/05 00:46:57;;;;;;;5.97;4.00;;;12.60;99.90;;;;;;5037398;28;20056;-85
2022/07/05 00:49:22;;;;;;;4.28;3.65;;;12.60;99.90;;;;;;5053380;28;20045;-85
2022/07/05 00:51:48;;;;;;;4.55;4.07;;;12.60;99.90;;;;;;5070935;28;20056;-86
2022/07/05 00:54:14;;;;;;;6.88;4.05;;;12.50;99.90;;;;;;5071028;28;20051;-86
2022/07/05 00:56:39;;;;;;;4.72;3.83;;;12.50;99.90;;;;;;5052742;28;20081;-86
2022/07/05 00:59:05;;;;;;;4.35;3.60;;;12.50;99.90;;;;;;5071115;28;20137;-85
2022/07/05 01:01:30;;;;;;;5.57;4.05;;;12.50;99.90;;;;;;5070513;28;20190;-86
2022/07/05 01:03:57;;;;;;;5.35;4.05;;;12.40;99.90;;;;;;5071055;28;20127;-86
2022/07/05 01:06:23;;;;;;;5.30;4.72;;;12.50;99.90;;;;;;5070926;28;20064;-85
2022/07/05 01:08:48;;;;;;;6.38;5.00;;;12.50;99.90;;;;;;5036091;28;20485;-85
2022/07/05 01:11:14;;;;;;;5.85;4.05;;;12.50;99.90;;;;;;5053242;28;20481;-84
2022/07/05 01:13:40;;;;;;;8.88;4.50;;;12.50;99.90;;;;;;5052880;28;20510;-86
2022/07/05 01:16:06;;;;;;;8.13;4.20;;;12.40;99.90;;;;;;5053737;28;20045;-85
2022/07/05 01:18:32;;;;;;;6.18;3.75;;;12.40;99.90;;;;;;5021728;28;20538;-85
2022/07/05 01:20:58;;;;;;;6.18;4.10;;;12.40;99.90;;;;;;5036595;28;20045;-85
2022/07/05 01:23:26;;;;;;;4.95;4.00;;;12.30;99.90;;;;;;5053007;28;20044;-85
2022/07/05 01:25:53;;;;;;;4.53;4.10;;;12.30;99.90;;;;;;5052856;28;20103;-85
2022/07/05 01:28:19;;;;;;;6.95;4.45;;;12.30;99.90;;;;;;5053141;28;20488;-85
2022/07/05 01:30:44;;;;;;;6.05;4.78;;;12.30;99.90;;;;;;5052592;28;20052;-85
2022/07/05 01:33:10;;;;;;;6.78;4.65;;;12.30;99.90;;;;;;5053724;28;20106;-86
2022/07/05 01:35:36;;;;;;;4.82;4.40;;;12.30;99.90;;;;;;5074468;28;20048;-85
2022/07/05 01:38:02;;;;;;;6.05;4.90;;;12.20;99.90;;;;;;5056655;28;20525;-85
2022/07/05 01:40:28;;;;;;;7.18;4.65;;;12.20;99.90;;;;;;5074465;28;20496;-84
2022/07/05 01:42:54;;;;;;;6.13;4.35;;;12.20;99.90;;;;;;5056393;28;20074;-85
2022/07/05 01:48:06;;;;;;;7.05;4.82;;;12.20;99.90;;;;;;5042614;28;20396;-85
2022/07/05 01:50:34;;;;;;;9.45;5.50;;;12.10;99.90;;;;;;5023462;28;20057;-87
2022/07/05 01:53:00;;;;;;;7.18;5.50;;;12.10;99.90;;;;;;5056525;28;20566;-86
2022/07/05 01:55:26;;;;;;;8.20;5.32;;;12.10;99.90;;;;;;5056640;28;20078;-86
2022/07/05 01:57:51;;;;;;;7.47;5.70;;;12.10;99.90;;;;;;5055825;28;20445;-86
2022/07/05 02:00:17;;;;;;;7.15;5.55;;;12.10;99.90;;;;;;5056306;28;20053;-85
2022/07/05 02:02:43;;;;;;;7.43;6.00;;;12.00;99.90;;;;;;5055879;28;20052;-86
2022/07/05 02:05:08;;;;;;;10.13;7.03;;;12.00;99.90;;;;;;5074410;28;20543;-86
2022/07/05 02:07:34;;;;;;;9.88;7.35;;;12.00;99.90;;;;;;5073741;28;20127;-86
2022/07/05 02:09:59;;;;;;;8.82;7.03;;;12.00;99.90;;;;;;5073869;28;20097;-86
2022/07/05 02:12:25;;;;;;;8.82;7.38;;;12.00;99.90;;;;;;5074123;28;20048;-86
2022/07/05 02:14:51;;;;;;;8.32;7.40;;;12.00;99.90;;;;;;5074667;28;20127;-85
2022/07/05 02:17:16;;;;;;;9.32;7.45;;;12.00;99.90;;;;;;5075140;28;20146;-85
2022/07/05 02:19:42;;;;;;;10.60;7.60;;;12.00;99.90;;;;;;5022600;28;20581;-85
2022/07/05 02:22:08;;;;;;;9.45;7.35;;;12.00;99.90;;;;;;5073809;28;20067;-85
2022/07/05 02:24:33;;;;;;;9.48;7.93;;;12.00;99.90;;;;;;5055882;28;20472;-84
2022/07/05 02:26:59;;;;;;;12.38;8.15;;;12.00;99.90;;;;;;5055819;28;20149;-85
2022/07/05 02:29:25;;;;;;;10.55;8.00;;;11.90;99.90;;;;;;5055732;28;20507;-86
2022/07/05 02:31:50;;;;;;;11.80;8.40;;;11.90;99.90;;;;;;5055157;28;20580;-85
2022/07/05 02:34:16;;;;;;;12.65;8.27;;;11.90;99.90;;;;;;5073774;28;20402;-85
2022/07/05 02:36:42;;;;;;;10.05;8.23;;;11.90;99.90;;;;;;5073146;28;20049;-86
2022/07/05 02:39:07;;;;;;;10.27;8.80;;;11.90;99.90;;;;;;5072985;28;20040;-86
2022/07/05 02:41:33;;;;;;;10.63;9.32;;;11.90;99.90;;;;;;5055634;28;20102;-86
2022/07/05 02:43:59;;;;;;;11.63;8.73;;;11.90;99.90;;;;;;5073012;28;20500;-86
2022/07/05 02:46:24;;;;;;;11.30;8.38;;;11.90;99.90;;;;;;5073647;28;20048;-84
2022/07/05 02:48:50;;;;;;;10.63;8.70;;;11.90;99.90;;;;;;5072980;28;20157;-86
2022/07/05 02:51:16;;;;;;;10.10;8.85;;;11.80;99.90;;;;;;5055294;28;20040;-84
2022/07/05 02:53:42;;;;;;;10.68;9.65;;;11.80;99.90;;;;;;5072688;28;20040;-85
2022/07/05 02:56:07;;;;;;;10.85;9.38;;;11.80;99.90;;;;;;5039823;28;20131;-85
2022/07/05 02:58:33;;;;;;;13.55;10.00;;;11.80;99.90;;;;;;5038699;28;20059;-84
2022/07/05 03:00:58;;;;;;;10.43;9.32;;;11.80;99.90;;;;;;5054929;28;20139;-85
2022/07/05 03:03:24;;;;;;;10.50;9.40;;;11.80;99.90;;;;;;5073001;28;20053;-85
2022/07/05 03:05:50;;;;;;;13.30;9.57;;;11.80;99.90;;;;;;5037995;28;20062;-86
2022/07/05 03:08:15;;;;;;;12.88;10.13;;;11.80;99.90;;;;;;5072673;28;20063;-86
2022/07/05 03:10:41;;;;;;;11.07;9.63;;;11.80;99.90;;;;;;5072695;28;20396;-86
2022/07/05 03:13:07;;;;;;;10.38;9.23;;;11.80;99.90;;;;;;5054989;28;20040;-86
2022/07/05 03:15:33;;;;;;;14.15;9.48;;;11.80;99.90;;;;;;5072740;28;20079;-85
2022/07/05 03:17:58;;;;;;;14.27;9.23;;;11.80;99.90;;;;;;5072763;28;20044;-85
2022/07/05 03:20:24;;;;;;;10.93;8.90;;;12.20;99.90;;;;;;5072854;28;20048;-86
2022/07/05 03:22:49;;;;;;;12.20;9.90;;;11.80;99.90;;;;;;5054660;28;20052;-86
2022/07/05 03:25:15;;;;;;;11.23;9.10;;;11.80;99.90;;;;;;5054804;28;20059;-85
2022/07/05 03:27:41;;;;;;;11.70;9.25;;;11.80;99.90;;;;;;5072490;28;20109;-86
2022/07/05 03:30:07;;;;;;;10.57;9.57;;;11.70;99.90;;;;;;5054322;28;20123;-86
2022/07/05 03:32:33;;;;;;;10.38;8.07;;;11.80;99.90;;;;;;5072490;28;20063;-85
2022/07/05 03:34:58;;;;;;;10.85;9.23;;;11.80;99.90;;;;;;5072082;28;20072;-84
2022/07/05 03:37:24;;;;;;;12.88;8.95;;;11.80;99.90;;;;;;5054463;28;20044;-84
2022/07/05 03:39:49;;;;;;;14.40;9.32;;;11.70;99.90;;;;;;5053471;28;20526;-85
2022/07/05 03:42:15;;;;;;;12.30;9.25;;;11.80;99.90;;;;;;5054505;28;20059;-85
2022/07/05 03:44:41;;;;;;;10.93;8.95;;;11.80;99.90;;;;;;5072001;28;20155;-85
2022/07/05 03:47:06;;;;;;;10.88;9.25;;;11.80;99.90;;;;;;5053966;28;20048;-85
2022/07/05 03:49:32;;;;;;;11.40;9.07;;;11.90;99.90;;;;;;5053936;28;20127;-85
2022/07/05 03:51:57;;;;;;;13.30;9.02;;;12.00;99.90;;;;;;5053766;28;20043;-85
2022/07/05 03:54:23;;;;;;;9.82;8.70;;;12.30;99.90;;;;;;5054355;28;20044;-85
2022/07/05 03:56:49;;;;;;;11.45;8.88;;;12.40;99.90;;;;;;5070832;28;20049;-86
2022/07/05 03:59:15;;;;;;;13.65;8.43;;;12.50;99.90;;;;;;5071644;28;20509;-85
2022/07/05 04:01:40;;;;;;;11.15;8.50;;;12.50;99.90;;;;;;5072157;28;20040;-86
2022/07/05 04:04:06;;;;;;;10.30;8.60;;;12.60;99.90;;;;;;5071474;28;20391;-84
2022/07/05 04:06:31;;;;;;;12.20;8.48;;;12.60;99.90;;;;;;5071748;28;20571;-85
2022/07/05 04:08:57;;;;;;;9.98;8.48;;;12.60;99.90;;;;;;5053651;28;20052;-86
2022/07/05 04:11:23;;;;;;;11.85;8.75;;;12.70;99.90;;;;;;5071595;28;20392;-85
2022/07/05 04:13:49;;;;;;;12.60;9.23;;;12.70;99.90;;;;;;5036339;28;20090;-85
2022/07/05 04:16:15;;;;;;;11.85;9.15;;;12.70;99.90;;;;;;5053583;28;20100;-85
2022/07/05 04:18:41;;;;;;;11.25;8.98;;;12.80;99.90;;;;;;5071559;28;20056;-85
2022/07/05 04:21:06;;;;;;;9.65;8.50;;;12.80;99.90;;;;;;5070739;28;20506;-86
2022/07/05 04:23:32;;;;;;;12.40;9.45;;;12.80;99.90;;;;;;5053760;28;20051;-86
2022/07/05 04:25:59;;;;;;;9.50;8.60;;;12.80;99.90;;;;;;5036138;28;20075;-85
2022/07/05 04:28:25;;;;;;;11.75;8.60;;;12.90;99.90;;;;;;5053805;28;20089;-85
2022/07/05 04:30:51;;;;;;;11.70;9.18;;;12.90;99.90;;;;;;5071368;28;20084;-86
2022/07/05 04:33:16;;;;;;;9.77;8.77;;;12.90;99.90;;;;;;5072331;28;20135;-85
2022/07/05 04:35:42;;;;;;;9.15;8.25;;;13.00;99.90;;;;;;5071598;28;20095;-84
2022/07/05 04:38:08;;;;;;;9.95;8.70;;;13.10;99.90;;;;;;5071023;28;20384;-85
2022/07/05 04:40:33;;;;;;;12.02;8.45;;;13.10;99.90;;;;;;5071164;28;20131;-86
2022/07/05 04:42:59;;;;;;;11.15;7.75;;;13.30;99.90;;;;;;5070675;28;20113;-85
2022/07/05 04:45:25;;;;;;;9.90;7.53;;;14.00;99.90;;;;;;5071044;28;20036;-84
2022/07/05 04:47:50;;;;;;;6.75;6.07;;;14.90;99.90;;;;;;5070838;28;20046;-85
2022/07/05 04:50:16;;;;;;;7.20;6.30;;;15.80;99.90;;;;;;5065782;28;20130;-88
2022/07/05 04:52:41;;;;;;;6.60;5.68;;;16.70;99.90;;;;;;5061606;28;20048;-90
2022/07/05 04:55:08;;;;;;;6.88;5.40;;;17.40;99.90;;;;;;5042065;28;20048;-89
2022/07/05 04:57:40;;;;;;;5.68;4.70;;;17.90;99.90;;;;;;5060638;28;20076;-90
2022/07/05 05:00:07;;;;;;;8.38;4.82;;;18.20;99.90;;;;;;5038239;28;20045;-90
2022/07/05 05:02:32;;;;;;;6.32;5.07;;;18.50;99.90;;;;;;5060389;28;20057;-88
2022/07/05 05:04:58;;;;;;;6.28;4.80;;;18.50;99.90;;;;;;5058825;28;20051;-89
2022/07/05 05:07:23;;;;;;;5.82;4.82;;;18.40;99.90;;;;;;5041317;28;20056;-88
2022/07/05 05:09:49;;;;;;;7.40;4.63;;;18.00;99.90;;;;;;5042504;28;20059;-89
2022/07/05 05:12:15;;;;;;;5.38;4.30;;;17.80;99.90;;;;;;5043176;28;20041;-89
2022/07/05 05:14:40;;;;;;;7.28;4.63;;;18.10;99.90;;;;;;5058762;28;20048;-90
2022/07/05 05:17:06;;;;;;;6.00;4.70;;;17.60;99.90;;;;;;5059668;28;20041;-91
2022/07/05 05:19:32;;;;;;;5.35;4.68;;;17.90;99.90;;;;;;5059834;28;20048;-89
2022/07/05 05:21:57;;;;;;;7.30;4.47;;;18.20;99.90;;;;;;5051224;28;20055;-85
2022/07/05 05:24:23;;;;;;;6.85;4.40;;;18.90;99.90;;;;;;5070171;28;20044;-84
2022/07/05 05:26:50;;;;;;;5.63;3.65;;;19.40;99.90;;;;;;5044241;28;20355;-84
2022/07/05 05:29:16;;;;;;;5.60;3.95;;;19.50;99.90;;;;;;5042166;28;20049;-84
2022/07/05 05:31:42;;;;;;;5.45;4.15;;;20.00;99.90;;;;;;5059136;28;20051;-89
2022/07/05 05:34:08;;;;;;;4.38;3.97;;;20.20;99.90;;;;;;5060989;28;20056;-88
2022/07/05 05:36:33;;;;;;;5.45;4.32;;;20.50;99.90;;;;;;5066030;28;20075;-90
2022/07/05 05:38:59;;;;;;;4.25;3.80;;;20.50;99.90;;;;;;5044776;28;20087;-89
2022/07/05 05:41:25;;;;;;;3.95;3.65;;;20.90;99.90;;;;;;5044501;28;20504;-88
2022/07/05 05:43:50;;;;;;;4.45;3.45;;;21.00;99.90;;;;;;5009358;28;20080;-89
2022/07/05 05:46:16;;;;;;;3.65;3.25;;;21.20;99.90;;;;;;5059224;28;20114;-88
2022/07/05 05:48:42;;;;;;;4.85;3.45;;;21.70;99.90;;;;;;5060797;28;20091;-88
2022/07/05 05:51:07;;;;;;;5.13;3.38;;;21.70;99.90;;;;;;5040658;28;20116;-88
2022/07/05 05:53:33;;;;;;;5.00;3.30;;;21.80;99.90;;;;;;5042737;28;20048;-89
2022/07/05 05:55:59;;;;;;;4.65;3.10;;;22.20;99.90;;;;;;5060131;28;20045;-88
2022/07/05 05:58:25;;;;;;;5.28;3.10;;;22.40;99.90;;;;;;5058508;28;20120;-89
2022/07/05 06:00:53;;;;;;;3.17;2.88;;;23.30;99.90;;;;;;5058735;28;20442;-89
2022/07/05 06:03:20;;;;;;;3.10;2.80;;;22.90;99.90;;;;;;5043857;28;20447;-89
2022/07/05 06:05:45;;;;;;;5.28;2.90;;;22.60;99.90;;;;;;5040583;28;20064;-89
2022/07/05 06:08:11;;;;;;;5.70;2.80;;;22.30;99.90;;;;;;5042407;28;20045;-87
2022/07/05 06:10:37;;;;;;;2.85;2.53;;;23.10;99.90;;;;;;5047546;28;20045;-85
2022/07/05 06:13:04;;;;;;;3.40;2.50;;;22.60;99.90;;;;;;5060991;28;20041;-90
2022/07/05 06:15:30;;;;;;;4.50;2.90;;;23.20;99.90;;;;;;5058545;28;20065;-89
2022/07/05 06:17:55;;;;;;;2.85;2.50;;;23.00;99.90;;;;;;5042869;28;20392;-90
2022/07/05 06:20:23;;;;;;;4.00;2.50;;;23.00;99.90;;;;;;5044482;28;20098;-90
2022/07/05 06:22:49;;;;;;;2.88;2.20;;;23.60;99.90;;;;;;5012282;28;20132;-88
2022/07/05 06:25:15;;;;;;;3.40;2.38;;;23.80;99.90;;;;;;5041326;28;20490;-88
2022/07/05 06:27:42;;;;;;;3.70;2.28;;;23.60;99.90;;;;;;5063338;28;20052;-89
2022/07/05 06:30:08;;;;;;;3.03;1.98;;;23.50;99.90;;;;;;5045949;28;20477;-88
2022/07/05 06:32:34;;;;;;;2.85;2.08;;;24.10;99.90;;;;;;5045803;28;20567;-85
2022/07/05 06:34:59;;;;;;;3.70;2.20;;;24.40;99.90;;;;;;5051997;28;20052;-84
2022/07/05 06:37:25;;;;;;;4.10;2.33;;;24.40;99.90;;;;;;5053209;28;20127;-86
2022/07/05 06:39:51;;;;;;;3.38;2.03;;;24.30;99.90;;;;;;5052160;28;20056;-86
2022/07/05 06:42:16;;;;;;;3.28;2.10;;;23.80;99.90;;;;;;5053175;28;20059;-87
2022/07/05 06:44:43;;;;;;;3.45;1.90;;;23.80;99.90;;;;;;5055926;28;20072;-86
2022/07/05 06:47:09;;;;;;;3.55;2.00;;;23.40;99.90;;;;;;5057091;28;20052;-85
2022/07/05 06:49:35;;;;;;;3.40;1.90;;;23.60;99.90;;;;;;5046447;28;20509;-86
2022/07/05 06:52:00;;;;;;;3.97;2.10;;;23.20;99.90;;;;;;5053736;28;20091;-86
2022/07/05 06:54:26;;;;;;;4.97;2.05;;;23.50;99.90;;;;;;5065896;28;20779;-85
2022/07/05 06:56:55;;;;;;;4.90;1.73;;;24.00;99.90;;;;;;5054173;28;20036;-85
2022/07/05 06:59:21;;;;;;;4.18;1.60;;;24.90;99.90;;;;;;5058417;28;20048;-91
2022/07/05 07:01:47;;;;;;;3.58;1.83;;;24.40;99.90;;;;;;5051407;28;20084;-89
2022/07/05 07:04:13;;;;;;;4.45;1.80;;;23.70;99.90;;;;;;5051216;28;20531;-88
2022/07/05 07:06:38;;;;;;;2.63;1.70;;;24.10;99.90;;;;;;5054361;28;20037;-89
2022/07/05 07:09:20;;;;;;;3.22;1.50;;;24.50;99.90;;;;;;5058387;28;20040;-89
2022/07/05 07:11:47;;;;;;;2.95;1.38;;;24.50;99.90;;;;;;5060438;28;20100;-90
2022/07/05 07:14:12;;;;;;;3.28;1.30;;;24.90;99.90;;;;;;5040010;28;20623;-87
2022/07/05 07:16:38;;;;;;;2.97;1.33;;;25.10;99.90;;;;;;5063059;28;20116;-87
2022/07/05 07:19:04;;;;;;;4.45;1.33;;;24.70;99.90;;;;;;5051791;28;20495;-85
2022/07/05 07:21:29;;;;;;;4.50;1.45;;;24.80;99.90;;;;;;5062596;28;20572;-86
2022/07/05 07:23:55;;;;;;;3.28;1.10;;;25.50;99.90;;;;;;5052137;28;20530;-86
2022/07/05 07:26:21;;;;;;;2.60;1.08;;;24.90;99.90;;;;;;5062024;28;20048;-84
2022/07/05 07:28:46;;;;;;;2.67;0.93;;;24.40;99.90;;;;;;5055442;28;20083;-87
2022/07/05 07:31:12;;;;;;;4.00;1.13;;;24.90;99.90;;;;;;5053538;28;20053;-85
2022/07/05 07:33:38;;;;;;;2.42;1.00;;;25.40;99.90;;;;;;5017882;28;20048;-87
2022/07/05 07:36:04;;;;;;;2.78;0.90;;;24.70;99.90;;;;;;5052560;28;20041;-87
2022/07/05 07:38:29;;;;;;;4.95;1.10;;;24.40;99.90;;;;;;5052014;28;20085;-87
2022/07/05 07:40:55;;;;;;;3.35;1.10;;;25.00;99.90;;;;;;5052113;28;20041;-87
2022/07/05 07:43:21;;;;;;;4.28;1.00;;;25.00;99.90;;;;;;5051973;28;20497;-86
2022/07/05 07:45:48;;;;;;;4.50;1.00;;;25.30;99.90;;;;;;5052269;28;20088;-85
2022/07/05 07:48:13;;;;;;;2.25;0.90;;;24.80;99.90;;;;;;5028536;28;20053;-89
2022/07/05 07:50:39;;;;;;;1.67;0.70;;;25.20;99.90;;;;;;5006191;28;20049;-87
2022/07/05 07:53:05;;;;;;;2.97;0.90;;;24.70;99.60;;;;;;5025308;28;20342;-92
2022/07/05 07:55:30;;;;;;;2.05;0.90;;;24.50;99.50;;;;;;5041269;28;20131;-89
2022/07/05 07:57:56;;;;;;;2.90;0.90;;;24.80;99.50;;;;;;5022433;28;20049;-91
2022/07/05 08:00:22;;;;;;;1.23;0.85;;;24.40;99.70;;;;;;5025689;28;20049;-92
2022/07/05 08:02:47;;;;;;;1.45;0.90;;;23.30;99.90;;;;;;5051850;28;20128;-94
2022/07/05 08:05:13;;;;;;;4.20;1.10;;;22.50;99.90;;;;;;5028979;28;20139;-91
2022/07/05 08:07:38;;;;;;;2.78;0.90;;;22.00;99.90;;;;;;5032332;28;20084;-87
2022/07/05 08:10:05;;;;;;;2.03;1.00;;;22.70;99.90;;;;;;5033787;28;20075;-87
2022/07/05 08:12:31;;;;;;;2.33;1.05;;;23.50;99.90;;;;;;5051547;28;20124;-88
2022/07/05 08:14:57;;;;;;;3.40;0.90;;;23.40;99.90;;;;;;5037537;28;20084;-89
2022/07/05 08:17:22;;;;;;;3.22;1.08;;;23.20;99.90;;;;;;5051679;28;20045;-90
2022/07/05 08:22:32;;;;;;;4.82;1.00;;;22.40;99.90;;;;;;5004341;28;20060;-90
2022/07/05 08:24:58;;;;;;;1.80;0.98;;;22.10;99.90;;;;;;5024924;28;20044;-91
2022/07/05 08:27:24;;;;;;;3.97;0.77;;;21.90;99.90;;;;;;5038998;28;20140;-87
2022/07/05 08:29:49;;;;;;;4.95;1.05;;;21.50;99.90;;;;;;5033863;28;20057;-89
2022/07/05 08:32:15;;;;;;;3.75;0.90;;;21.20;99.90;;;;;;5022140;28;20060;-89
2022/07/05 08:34:41;;;;;;;4.18;1.00;;;21.20;99.90;;;;;;5048633;28;20049;-88
2022/07/05 08:37:07;;;;;;;2.65;1.00;;;21.30;99.90;;;;;;5016680;28;20045;-88
2022/07/05 08:39:33;;;;;;;3.50;1.00;;;21.40;99.90;;;;;;5049573;28;20079;-89
2022/07/05 08:41:59;;;;;;;1.58;1.00;;;22.20;99.90;;;;;;5033470;28;20052;-88
2022/07/05 08:44:25;;;;;;;3.38;0.90;;;22.90;99.90;;;;;;5049601;28;20139;-87
2022/07/05 08:46:52;;;;;;;3.88;1.00;;;23.30;99.90;;;;;;5033504;28;20131;-87
2022/07/05 08:49:23;;;;;;;3.95;1.10;;;24.10;99.90;;;;;;5049857;28;20055;-88
2022/07/05 08:51:49;;;;;;;3.20;1.00;;;24.80;99.90;;;;;;5049626;28;20049;-90
2022/07/05 08:54:14;;;;;;;2.85;0.90;;;24.80;99.80;;;;;;5052827;28;20049;-88
2022/07/05 08:56:44;;;;;;;4.40;1.17;;;24.70;99.60;;;;;;5036897;28;20048;-89
2022/07/05 08:59:09;;;;;;;2.20;0.75;;;23.60;99.60;;;;;;5053364;28;20048;-93
2022/07/05 09:01:35;;;;;;;4.63;1.55;;;22.90;99.90;;;;;;5062410;28;20052;-91
2022/07/05 09:04:04;;;;;;;3.88;1.15;;;23.40;99.90;;;;;;5051300;28;20083;-91
2022/07/05 09:06:31;;;;;;;4.72;1.33;;;23.90;99.90;;;;;;5050873;28;20106;-94
2022/07/05 09:08:56;;;;;;;4.50;0.98;;;24.20;99.90;;;;;;5052774;28;20049;-89
2022/07/05 09:11:25;;;;;;;3.97;1.00;;;24.80;99.20;;;;;;5034746;28;20533;-88
2022/07/05 09:13:51;;;;;;;2.95;1.10;;;25.20;98.70;;;;;;5048329;28;20377;-86
2022/07/05 09:16:17;;;;;;;3.33;1.00;;;25.80;99.30;;;;;;5051537;28;20177;-87
2022/07/05 09:18:52;;;;;;;1.92;0.90;;;25.50;98.90;;;;;;5053686;28;20409;-91
2022/07/05 09:21:21;;;;;;;3.30;1.48;;;24.90;98.90;;;;;;5021585;28;20395;-91
2022/07/05 09:24:04;;;;;;;3.58;1.08;;;24.30;98.90;;;;;;5041202;28;20048;-93
2022/07/05 09:26:48;;;;;;;3.70;1.00;;;23.30;99.50;;;;;;5055289;28;20059;-95
2022/07/05 09:29:18;;;;;;;3.00;1.00;;;24.20;99.90;;;;;;5036524;28;20158;-94
2022/07/05 09:31:46;;;;;;;1.60;0.65;;;24.00;99.70;;;;;;5032067;28;20388;-95
2022/07/05 09:34:15;;;;;;;2.92;1.13;;;23.00;99.90;;;;;;5042867;28;20052;-92
2022/07/05 09:36:57;;;;;;;3.38;1.02;;;22.60;99.90;;;;;;5038296;28;20060;-91
2022/07/05 09:39:32;;;;;;;3.80;1.08;;;22.60;99.90;;;;;;5035925;28;20130;-90
2022/07/05 09:42:22;;;;;;;3.45;1.10;;;22.30;99.90;;;;;;5035660;28;20052;-93
2022/07/05 09:44:55;;;;;;;1.80;0.80;;;21.70;99.90;;;;;;5021268;28;20472;-87
2022/07/05 09:47:22;;;;;;;2.67;1.17;;;21.50;99.90;;;;;;5060102;28;20056;-88
2022/07/05 09:49:51;;;;;;;2.83;0.90;;;21.40;99.90;;;;;;5055565;28;20044;-85
2022/07/05 09:52:30;;;;;;;3.80;0.95;;;21.80;99.90;;;;;;5038075;28;20052;-88
2022/07/05 09:55:19;;;;;;;4.03;0.98;;;21.70;99.90;;;;;;5043120;28;20622;-87
2022/07/05 09:57:50;;;;;;;3.28;1.10;;;21.50;99.90;;;;;;5027772;28;20053;-90
2022/07/05 10:00:20;;;;;;;3.83;0.90;;;21.10;99.90;;;;;;5045850;28;20053;-88
2022/07/05 10:02:58;;;;;;;4.10;1.00;;;20.80;99.90;;;;;;5029659;28;20040;-87
2022/07/05 10:05:25;;;;;;;4.40;1.35;;;20.70;99.90;;;;;;5043502;28;20036;-87
2022/07/05 10:07:55;;;;;;;3.70;1.10;;;20.60;99.90;;;;;;5037141;28;20056;-88
2022/07/05 10:10:25;;;;;;;3.38;1.38;;;20.60;99.90;;;;;;5043289;28;20056;-87
2022/07/05 10:13:02;;;;;;;4.20;1.40;;;21.10;99.90;;;;;;5028277;28;20049;-89
2022/07/05 10:15:32;;;;;;;2.75;1.10;;;21.80;99.90;;;;;;5031376;28;20492;-89
2022/07/05 10:18:03;;;;;;;4.13;1.15;;;22.20;99.90;;;;;;5073609;28;20048;-87
2022/07/05 10:20:43;;;;;;;3.80;0.90;;;21.80;99.90;;;;;;5052150;28;20044;-92
2022/07/05 10:23:09;;;;;;;2.88;1.10;;;21.70;99.90;;;;;;5046345;28;20136;-92
2022/07/05 10:25:35;;;;;;;2.22;1.08;;;21.40;99.90;;;;;;5063106;28;20063;-96
2022/07/05 10:28:01;;;;;;;3.45;1.08;;;21.70;99.90;;;;;;5028118;28;20045;-92
2022/07/05 10:30:27;;;;;;;3.53;0.98;;;21.80;99.90;;;;;;5029625;28;20045;-92
2022/07/05 10:32:53;;;;;;;5.28;1.17;;;21.80;99.90;;;;;;5061085;28;20107;-87
2022/07/05 10:35:18;;;;;;;4.32;1.23;;;21.80;99.90;;;;;;5044857;28;20128;-94
2022/07/05 10:37:44;;;;;;;4.07;1.23;;;20.80;99.90;;;;;;5030087;28;20048;-94
2022/07/05 10:40:10;;;;;;;4.82;1.08;;;21.00;99.90;;;;;;5034809;28;20040;-92
2022/07/05 10:42:37;;;;;;;4.30;0.93;;;20.90;99.90;;;;;;5036441;28;20052;-87
2022/07/05 10:45:21;;;;;;;3.92;1.17;;;20.80;99.90;;;;;;5072827;28;20083;-86
2022/07/05 10:48:10;;;;;;;1.65;0.90;;;21.30;99.90;;;;;;5041070;28;20131;-87
2022/07/05 10:50:54;;;;;;;4.88;1.38;;;21.90;99.90;;;;;;5047598;28;20048;-89
2022/07/05 10:53:27;;;;;;;3.67;1.23;;;22.30;99.90;;;;;;5047012;28;20171;-89
2022/07/05 10:55:55;;;;;;;3.17;1.30;;;21.60;99.90;;;;;;5029740;28;20053;-88
2022/07/05 10:58:24;;;;;;;2.17;1.10;;;21.20;99.90;;;;;;5045314;28;20102;-88
2022/07/05 11:01:12;;;;;;;2.40;1.23;;;21.40;99.90;;;;;;5046754;28;20489;-89
2022/07/05 11:03:39;;;;;;;2.35;1.08;;;21.00;99.90;;;;;;5040105;28;20120;-92
2022/07/05 11:06:05;;;;;;;5.70;1.13;;;21.00;99.90;;;;;;5047687;28;20041;-90
2022/07/05 11:08:34;;;;;;;1.50;0.90;;;21.30;99.90;;;;;;5055707;28;20049;-87
2022/07/05 11:11:12;;;;;;;6.95;1.40;;;21.60;99.90;;;;;;5035243;28;20052;-87
2022/07/05 11:13:40;;;;;;;3.38;1.20;;;22.80;99.90;;;;;;5018684;28;20110;-86
2022/07/05 11:16:25;;;;;;;2.38;1.00;;;23.40;99.90;;;;;;5034567;28;20098;-86
2022/07/05 11:19:07;;;;;;;3.13;1.20;;;22.60;99.90;;;;;;5034948;28;20053;-87
2022/07/05 11:21:33;;;;;;;2.10;1.00;;;22.10;99.90;;;;;;5020616;28;20522;-86
2022/07/05 11:24:22;;;;;;;2.28;0.95;;;22.10;99.90;;;;;;5042951;28;20040;-87
2022/07/05 11:26:48;;;;;;;3.28;1.30;;;21.90;99.90;;;;;;5038274;28;20456;-86
2022/07/05 11:29:46;;;;;;;2.85;1.38;;;21.90;99.90;;;;;;5055027;28;20056;-86
2022/07/05 11:32:30;;;;;;;2.03;0.90;;;22.40;99.90;;;;;;5054854;28;20182;-84
2022/07/05 11:35:11;;;;;;;3.22;1.10;;;22.40;99.90;;;;;;5057458;28;20055;-86
2022/07/05 11:38:15;;;;;;;2.63;1.20;;;22.80;99.90;;;;;;5057530;28;20087;-86
2022/07/05 11:40:40;;;;;;;1.98;1.17;;;23.10;99.90;;;;;;5039681;28;20399;-86
2022/07/05 11:43:08;;;;;;;2.15;1.23;;;22.60;99.90;;;;;;5054278;28;20044;-85
2022/07/05 11:45:34;;;;;;;2.03;1.05;;;22.70;99.90;;;;;;5071979;28;20503;-86
2022/07/05 11:47:59;;;;;;;3.50;1.10;;;22.60;99.90;;;;;;5072068;28;20044;-86
2022/07/05 11:50:27;;;;;;;3.13;1.20;;;22.60;99.90;;;;;;5054110;28;20052;-86
2022/07/05 11:52:52;;;;;;;2.92;1.10;;;22.70;99.90;;;;;;5054018;28;20048;-86
2022/07/05 11:55:18;;;;;;;2.38;1.08;;;23.10;99.90;;;;;;5054277;28;20063;-86
2022/07/05 11:57:51;;;;;;;2.63;1.42;;;23.30;99.90;;;;;;5054248;28;20071;-84
2022/07/05 12:00:30;;;;;;;3.08;1.20;;;23.10;99.90;;;;;;5054271;28;20060;-86
2022/07/05 12:02:56;;;;;;;4.43;1.00;;;22.80;99.90;;;;;;5054339;28;20052;-86
2022/07/05 12:05:21;;;;;;;2.53;0.95;;;22.60;99.90;;;;;;5053933;28;20109;-86
2022/07/05 12:07:51;;;;;;;4.90;1.35;;;22.10;99.90;;;;;;5037495;28;20388;-87
2022/07/05 12:13:06;;;;;;;6.07;1.02;;;21.90;99.90;;;;;;5039888;28;20092;-87
2022/07/05 12:15:31;;;;;;;4.22;1.10;;;21.80;99.90;;;;;;5037225;28;20053;-85
2022/07/05 12:17:57;;;;;;;4.32;1.10;;;21.60;99.90;;;;;;5036593;28;20049;-86
2022/07/05 12:20:24;;;;;;;2.53;0.93;;;21.70;99.90;;;;;;5037171;28;20055;-86
2022/07/05 12:22:49;;;;;;;3.47;1.10;;;22.20;99.90;;;;;;5053736;28;20044;-85
2022/07/05 12:25:20;;;;;;;3.17;0.90;;;22.50;99.90;;;;;;5057947;28;20161;-86
2022/07/05 12:27:50;;;;;;;2.72;1.17;;;22.90;99.90;;;;;;5046801;28;20068;-85
2022/07/05 12:30:16;;;;;;;3.28;0.95;;;23.10;99.90;;;;;;5053180;28;20511;-86
2022/07/05 12:32:58;;;;;;;2.45;0.80;;;22.80;98.80;;;;;;5033392;28;20057;-86
2022/07/05 12:35:43;;;;;;;3.17;0.80;;;22.40;98.80;;;;;;5017785;28;20082;-86
2022/07/05 12:38:09;;;;;;;5.03;1.05;;;22.10;99.10;;;;;;5051009;28;20047;-84
2022/07/05 12:40:36;;;;;;;2.10;0.80;;;21.90;99.60;;;;;;5033556;28;20044;-85
2022/07/05 12:43:07;;;;;;;2.33;0.90;;;22.10;99.10;;;;;;5033375;28;20183;-86
2022/07/05 12:45:33;;;;;;;3.25;0.90;;;22.00;99.30;;;;;;5017085;28;20053;-86
2022/07/05 12:48:01;;;;;;;6.60;1.13;;;22.30;99.40;;;;;;5016833;28;20064;-86
2022/07/05 12:50:31;;;;;;;5.05;1.30;;;22.10;99.90;;;;;;5000640;28;20060;-85
2022/07/05 12:52:58;;;;;;;8.13;1.20;;;21.80;99.90;;;;;;5050724;28;20044;-85
2022/07/05 12:58:08;;;;;;;4.30;1.30;;;21.90;99.90;;;;;;5032663;28;20068;-86